Flight Track Log - Related Links

Times and Time Zones

All times are in EDT time to prevent confusion due to time zone crossing. See the N552XJ flight status page for this flight to view local times or setup timezone preferences in your user account.

Time Position Orientation Groundspeed Altitude Reporting Facility
EDT Latitude Longitude Course Direction KTS MPH feet Rate Location/Type
Sat 03:22:43 PM 41.9333 -87.9000 180° South 186 214 2,300  Level Chicago TRACON
Sat 03:23:37 PM 41.8833 -87.9000 180° South 251 289 4,600 2,118 Climbing Chicago TRACON
Sat 03:24:42 PM 41.8131 -87.8889 173° South 246 283 6,500 3,048 Climbing Chicago Center
Sat 03:25:43 PM 41.7308 -87.8864 179° South 295 339 11,000 4,390 Climbing Chicago Center
Sat 03:26:45 PM 41.6322 -87.8844 179° South 350 403 15,500 4,000 Climbing Chicago Center
Sat 03:27:46 PM 41.5272 -87.8806 178° South 372 428 19,200 3,415 Climbing Chicago Center
Sat 03:28:00 PM 41.2221 -87.4632 180° South  Level Estimated
Sat 03:28:48 PM 41.4158 -87.8781 179° South 391 450 22,500  Level Chicago Center
Sat 03:29:50 PM 41.3036 -87.8881 184° South 397 457 25,400 2,780 Climbing Chicago Center
Sat 03:30:51 PM 41.1617 -87.8897 181° South 423 487 28,200 2,439 Climbing Chicago Center
Sat 03:31:53 PM 41.0400 -87.8858 179° South 434 499 30,400 2,146 Climbing Chicago Center
Sat 03:32:54 PM 40.9183 -87.8819 179° South 438 504 32,600 2,049 Climbing Chicago Center
Sat 03:33:56 PM 40.7947 -87.8617 173° South 448 516 34,600 1,854 Climbing Chicago Center
Sat 03:34:57 PM 40.6717 -87.8281 168° South 453 521 36,400 1,854 Climbing Chicago Center
Sat 03:35:59 PM 40.5506 -87.7967 169° South 449 517 38,400 1,707 Climbing Chicago Center
Sat 03:37:00 PM 40.4339 -87.7658 169° South 435 501 39,900 1,213 Climbing Chicago Center
Sat 03:37:28 PM 40.3703 -87.7486 168° South 436 502 40,200 539 Climbing Indianapolis Center
Sat 03:38:29 PM 40.2494 -87.7175 169° South 437 503 40,700 390 Climbing Indianapolis Center
Sat 03:39:31 PM 40.1239 -87.6847 169° South 451 519 41,000 145 Climbing Indianapolis Center
Sat 03:40:33 PM 39.9986 -87.6503 168° South 457 526 41,000  Level Indianapolis Center
Sat 03:41:34 PM 39.8736 -87.6164 168° South 458 527 41,000  Level Indianapolis Center
Sat 03:42:36 PM 39.7236 -87.5778 169° South 456 525 41,000  Level Indianapolis Center
Sat 03:43:37 PM 39.6003 -87.5461 169° South 451 519 41,000  Level Indianapolis Center
Sat 03:44:39 PM 39.4764 -87.5139 169° South 453 521 41,000  Level Indianapolis Center
Sat 03:45:40 PM 39.3519 -87.4808 168° South 455 524 41,000  Level Indianapolis Center
Sat 03:46:42 PM 39.2275 -87.4497 169° South 455 524 41,000  Level Indianapolis Center
Sat 03:47:43 PM 39.1031 -87.4169 168° South 455 524 41,000  Level Indianapolis Center
Sat 03:48:45 PM 38.9797 -87.3858 169° South 452 520 41,000  Level Indianapolis Center
Sat 03:49:46 PM 38.8556 -87.3536 169° South 453 521 41,000  Level Indianapolis Center
Sat 03:50:48 PM 38.7314 -87.3228 169° South 453 521 41,000  Level Indianapolis Center
Sat 03:51:49 PM 38.6075 -87.2900 168° South 454 522 41,000  Level Indianapolis Center
Sat 03:52:51 PM 38.4597 -87.2531 169° South 453 521 41,000  Level Indianapolis Center
Sat 03:53:52 PM 38.3378 -87.2219 169° South 453 521 41,000  Level Indianapolis Center
Sat 03:54:53 PM 38.2139 -87.1953 170° South 449 517 41,000  Level Indianapolis Center
Sat 03:55:55 PM 38.0947 -87.1619 168° South 456 525 41,000  Level Indianapolis Center
Sat 03:56:56 PM 37.9719 -87.1317 169° South 453 521 41,000  Level Indianapolis Center
Sat 03:57:58 PM 37.8497 -87.1008 169° South 449 517 41,000  Level Indianapolis Center
Sat 03:58:59 PM 37.7028 -87.0639 169° South 447 514 41,000  Level Indianapolis Center
Sat 04:00:06 PM 37.5664 -87.0344 170° South 458 527 41,000  Level Memphis Center
Sat 04:01:06 PM 37.4428 -87.0003 168° South 458 527 41,000  Level Memphis Center
Sat 04:02:06 PM 37.3211 -86.9717 169° South 458 527 41,000  Level Memphis Center
Sat 04:03:06 PM 37.1953 -86.9406 169° South 453 521 41,000  Level Memphis Center
Sat 04:04:06 PM 37.0714 -86.9094 169° South 453 521 41,000  Level Memphis Center
Sat 04:05:06 PM 36.9436 -86.8786 169° South 453 521 41,000  Level Memphis Center
Sat 04:06:06 PM 36.8364 -86.8522 169° South 453 521 41,000  Level Memphis Center
Sat 04:07:06 PM 36.7086 -86.8217 169° South 453 521 41,000  Level Memphis Center
Sat 04:08:06 PM 36.5889 -86.7906 168° South 448 516 41,000  Level Memphis Center
Sat 04:09:06 PM 36.4669 -86.7572 168° South 448 516 41,000  Level Memphis Center
Sat 04:10:06 PM 36.3392 -86.7347 172° South 459 528 41,000  Level Memphis Center
Sat 04:11:06 PM 36.2047 -86.6994 168° South 459 528 41,000  Level Memphis Center
Sat 04:12:06 PM 36.0883 -86.6406 158° South 454 522 41,000  Level Memphis Center
Sat 04:13:06 PM 35.9831 -86.5425 143° Southeast 463 533 41,000  Level Memphis Center
Sat 04:15:05 PM 35.7861 -86.3606 143° Southeast 505 581 41,000  Level Atlanta Center
Sat 04:16:05 PM 35.6856 -86.2683 143° Southeast 475 547 41,000  Level Atlanta Center
Sat 04:17:05 PM 35.5808 -86.1733 144° Southeast 470 541 41,000  Level Atlanta Center
Sat 04:18:05 PM 35.4803 -86.0842 144° Southeast 464 534 41,000  Level Atlanta Center
Sat 04:19:05 PM 35.3794 -85.9875 142° Southeast 464 534 41,000  Level Atlanta Center
Sat 04:20:05 PM 35.2664 -85.8856 144° Southeast 464 534 41,000  Level Atlanta Center
Sat 04:21:05 PM 35.1756 -85.8047 144° Southeast 464 534 41,000  Level Atlanta Center
Sat 04:22:05 PM 35.0725 -85.7136 144° Southeast 459 528 41,000  Level Atlanta Center
Sat 04:23:05 PM 34.9694 -85.6178 143° Southeast 459 528 41,000  Level Atlanta Center
Sat 04:24:05 PM 34.8664 -85.5272 144° Southeast 459 528 41,000  Level Atlanta Center
Sat 04:25:05 PM 34.7631 -85.4369 144° Southeast 464 534 41,000  Level Atlanta Center
Sat 04:26:05 PM 34.6639 -85.3444 142° Southeast 464 534 41,000  Level Atlanta Center
Sat 04:27:05 PM 34.5606 -85.2544 144° Southeast 459 528 41,000  Level Atlanta Center
Sat 04:28:05 PM 34.4508 -85.1522 142° Southeast 459 528 41,000  Level Atlanta Center
Sat 04:29:05 PM 34.3494 -85.0628 144° Southeast 452 520 41,000  Level Atlanta Center
Sat 04:30:05 PM 34.2436 -84.9736 145° Southeast 457 526 41,000  Level Atlanta Center
Sat 04:31:05 PM 34.1419 -84.8847 144° Southeast 464 534 41,000  Level Atlanta Center
Sat 04:32:05 PM 34.0467 -84.8008 144° Southeast 464 534 41,000  Level Atlanta Center
Sat 04:33:05 PM 33.9406 -84.7150 146° Southeast 469 540 41,000  Level Atlanta Center
Sat 04:34:05 PM 33.8303 -84.6514 154° Southeast 456 525 41,000  Level Atlanta Center
Sat 04:35:05 PM 33.7178 -84.5983 159° South 437 503 41,000  Level Atlanta Center
Sat 04:36:05 PM 33.6053 -84.5475 159° South 437 503 41,000  Level Atlanta Center
Sat 04:37:05 PM 33.4761 -84.4897 160° South 442 509 41,000  Level Atlanta Center
Sat 04:38:05 PM 33.3636 -84.4367 158° South 447 514 41,000  Level Atlanta Center
Sat 04:39:05 PM 33.2469 -84.3842 159° South 442 509 41,000  Level Atlanta Center
Sat 04:40:05 PM 33.1322 -84.3317 159° South 448 516 41,000  Level Atlanta Center
Sat 04:41:05 PM 33.0175 -84.2792 159° South 453 521 41,000  Level Atlanta Center
Sat 04:42:05 PM 32.9008 -84.2244 159° South 447 514 41,000  Level Atlanta Center
Sat 04:43:05 PM 32.7839 -84.1747 160° South 447 514 41,000  Level Atlanta Center
Sat 04:44:05 PM 32.6692 -84.1203 158° South 447 514 41,000  Level Atlanta Center
Sat 04:45:05 PM 32.5544 -84.0683 159° South 447 514 41,000  Level Atlanta Center
Sat 04:46:05 PM 32.4375 -84.0167 160° South 447 514 41,000  Level Atlanta Center
Sat 04:47:05 PM 32.3206 -83.9628 159° South 447 514 41,000  Level Atlanta Center
Sat 04:48:05 PM 32.2036 -83.9089 159° South 447 514 41,000  Level Atlanta Center
Sat 04:49:31 PM 32.0481 -83.8386 159° South 461 531 41,000  Level Jacksonville Center
Sat 04:50:31 PM 31.9317 -83.7861 159° South 456 525 41,000  Level Jacksonville Center
Sat 04:51:31 PM 31.8067 -83.7286 159° South 438 504 41,000  Level Jacksonville Center
Sat 04:52:31 PM 31.6944 -83.6789 159° South 438 504 41,000  Level Jacksonville Center
Sat 04:53:31 PM 31.5714 -83.6242 159° South 445 512 41,000  Level Jacksonville Center
Sat 04:54:31 PM 31.4589 -83.5769 160° South 450 518 41,000  Level Jacksonville Center
Sat 04:55:31 PM 31.3486 -83.5275 159° South 444 511 41,000  Level Jacksonville Center
Sat 04:56:32 PM 31.2361 -83.4781 159° South 438 504 41,000  Level Jacksonville Center
Sat 04:57:31 PM 31.1278 -83.4339 161° South 433 498 41,000  Level Jacksonville Center
Sat 04:58:31 PM 31.0153 -83.3822 159° South 427 491 41,000  Level Jacksonville Center
Sat 04:59:32 PM 30.9047 -83.3333 159° South 427 491 41,000  Level Jacksonville Center
Sat 05:00:31 PM 30.7983 -83.2844 158° South 422 486 41,000  Level Jacksonville Center
Sat 05:01:31 PM 30.6858 -83.2308 158° South 422 486 41,000  Level Jacksonville Center
Sat 05:02:32 PM 30.5753 -83.1750 156° South 427 491 41,000  Level Jacksonville Center
Sat 05:03:31 PM 30.4647 -83.1192 156° South 433 498 41,000  Level Jacksonville Center
Sat 05:04:31 PM 30.3500 -83.0611 156° South 439 505 41,000  Level Jacksonville Center
Sat 05:05:32 PM 30.2372 -83.0056 157° South 439 505 41,000  Level Jacksonville Center
Sat 05:06:31 PM 30.1244 -82.9503 157° South 439 505 41,000  Level Jacksonville Center
Sat 05:07:31 PM 30.0244 -82.8972 155° Southeast 439 505 41,000  Level Jacksonville Center
Sat 05:08:32 PM 29.9053 -82.8494 161° South 445 512 41,000  Level Jacksonville Center
Sat 05:09:32 PM 29.7925 -82.7919 156° South 445 512 41,000 -50 Level Jacksonville Center
Sat 05:10:31 PM 29.6797 -82.7372 157° South 445 512 40,900  Descending Jacksonville Center
Sat 05:11:32 PM 29.5692 -82.6825 157° South 440 506 41,000 50 Climbing Jacksonville Center
Sat 05:12:31 PM 29.4542 -82.6208 155° Southeast 440 506 41,000  Level Jacksonville Center
Sat 05:13:31 PM 29.3411 -82.5661 157° South 440 506 41,000  Level Jacksonville Center
Sat 05:14:31 PM 29.2283 -82.5119 157° South 440 506 41,000  Level Jacksonville Center
Sat 05:15:31 PM 29.1133 -82.4647 160° South 440 506 41,000  Level Jacksonville Center
Sat 05:16:31 PM 28.9986 -82.4700 182° South 421 484 41,000  Level Jacksonville Center
Sat 05:17:32 PM 28.8861 -82.4989 193° South 410 472 41,000  Level Jacksonville Center
Sat 05:18:31 PM 28.7775 -82.5278 193° South 405 466 41,000  Level Jacksonville Center
Sat 05:19:31 PM 28.6586 -82.5614 194° South 405 466 41,000  Level Jacksonville Center
Sat 05:20:32 PM 28.5481 -82.5925 194° South 410 472 41,000  Level Jacksonville Center
Sat 05:21:31 PM 28.4375 -82.6186 192° South 410 472 41,000  Level Jacksonville Center
Sat 05:22:31 PM 28.3269 -82.6497 194° South 410 472 41,000  Level Jacksonville Center
Sat 05:23:32 PM 28.2269 -82.6736 192° South 415 478 41,000  Level Jacksonville Center
Sat 05:24:31 PM 28.1164 -82.7019 193° South 415 478 41,000  Level Jacksonville Center
Sat 05:24:52 PM 28.0664 -82.7147 193° South 413 475 41,000  Level Miami Center
Sat 05:25:52 PM 27.9617 -82.7306 188° South 399 459 41,000  Level Miami Center
Sat 05:26:52 PM 27.8481 -82.7011 167° South 410 472 41,000  Level Miami Center
Sat 05:27:52 PM 27.7144 -82.6544 163° South 435 501 41,000  Level Miami Center
Sat 05:28:52 PM 27.5950 -82.6108 162° South 445 512 41,000  Level Miami Center
Sat 05:29:52 PM 27.4903 -82.5706 161° South 445 512 41,000  Level Miami Center
Sat 05:30:52 PM 27.3711 -82.5250 161° South 453 521 41,000  Level Miami Center
Sat 05:31:52 PM 27.2517 -82.4817 162° South 453 521 41,000  Level Miami Center
Sat 05:32:52 PM 27.1386 -82.4389 161° South 442 509 41,000  Level Miami Center
Sat 05:33:52 PM 27.0192 -82.3983 163° South 442 509 41,000  Level Miami Center
Sat 05:34:52 PM 26.8894 -82.3478 161° South 442 509 41,000  Level Miami Center
Sat 05:35:52 PM 26.7806 -82.3078 162° South 451 519 41,000  Level Miami Center
Sat 05:36:52 PM 26.6631 -82.2675 163° South 451 519 41,000 -150 Level Miami Center
Sat 05:37:52 PM 26.5506 -82.1997 152° Southeast 451 519 40,700 -1,000 Descending Miami Center
Sat 05:38:52 PM 26.4542 -82.0981 137° Southeast 456 525 39,000 -1,950 Descending Miami Center
Sat 05:39:52 PM 26.3556 -81.9917 136° Southeast 480 552 36,800 -2,050 Descending Miami Center
Sat 05:40:52 PM 26.2592 -81.8878 136° Southeast 485 558 34,900 -1,950 Descending Miami Center
Sat 05:41:52 PM 26.1731 -81.7803 132° Southeast 478 550 32,900 -2,100 Descending Miami Center
Sat 05:42:52 PM 26.1128 -81.6411 116° Southeast 478 550 30,700 -2,250 Descending Miami Center
Sat 05:43:52 PM 26.0525 -81.5025 116° Southeast 487 560 28,400 -2,300 Descending Miami Center
Sat 05:44:52 PM 25.9375 -81.4472 157° South 444 511 26,100 -2,350 Descending Miami Center
Sat 05:45:52 PM 25.8192 -81.4242 170° South 421 484 23,700 -2,000 Descending Miami Center
Sat 05:46:52 PM 25.7378 -81.4881 215° Southwest 350 403 22,100 -1,600 Descending Miami Center
Sat 05:47:52 PM 25.6456 -81.4983 186° South 341 392 20,500 -1,700 Descending Miami Center
Sat 05:48:52 PM 25.5522 -81.4808 170° South 335 386 18,700 -1,750 Descending Miami Center
Sat 05:49:52 PM 25.4650 -81.4614 169° South 329 379 17,000 -1,750 Descending Miami Center
Sat 05:50:52 PM 25.4278 -81.3794 117° Southeast 288 331 15,200 -1,950 Descending Miami Center
Sat 05:51:52 PM 25.4494 -81.2836 76° East 251 289 13,100 -1,700 Descending Miami Center
Sat 05:52:52 PM 25.4753 -81.1950 72° East 270 311 11,800 -1,101 Descending Miami Center
Sat 05:53:41 PM 25.4942 -81.1150 75° East 298 343 11,100 -692 Descending Miami Center
Sat 05:54:36 PM 25.5197 -81.0308 71° East 302 348 10,600 -592 Descending Miami Center
Sat 05:54:52 PM 25.5264 -81.0172 62° Northeast 280 322 10,400 -492 Descending Miami Center
Sat 05:55:37 PM 25.5428 -80.9511 75° East 256 295 10,100 -500 Descending Miami Center
Sat 05:55:52 PM 25.5472 -80.9419 62° Northeast 273 314 9,900 -984 Descending Miami Center
Sat 05:56:38 PM 25.5678 -80.8758 71° East 255 293 9,100 -1,121 Descending Miami Center
Sat 05:57:39 PM 25.6131 -80.8267 44° Northeast 246 283 7,900 -1,131 Descending Miami Center
Sat 05:58:40 PM 25.6783 -80.8036 18° North 233 268 6,800 -1,131 Descending Miami Center
Sat 05:59:41 PM 25.7417 -80.7847 15° North 224 258 5,600 -1,328 Descending Miami Center
Sat 06:00:42 PM 25.7986 -80.7567 24° Northeast 227 261 4,100 -1,377 Descending Miami Center
Sat 06:01:43 PM 25.8539 -80.7261 26° Northeast 216 249 2,800 -969 Descending Miami Center
Sat 06:02:52 PM 25.8950 -80.6628 54° Northeast 207 238 2,000 -344 Descending Miami Center
Sat 06:03:45 PM 25.8947 -80.6006 90° East 229 264 2,100  Climbing Miami Center
Sat 06:04:46 PM 25.8986 -80.5289 87° East 223 257 2,000 -33 Descending Miami Center
Sat 06:06:48 PM 25.9036 -80.4022 87° East 187 215 2,000 -295 Level Miami Center
Sat 06:07:49 PM 25.9072 -80.3492 86° East 131 151 1,100 -732 Descending Miami Center
Sat 06:08:51 PM 25.9100 -80.3122 85° East 116 133 500 -581 Descending Miami Center
Sat 06:10:00 PM 25.9074 -80.2782 86° East  Level Estimated
Sat 06:17:00 PM 25.9074 -80.2782 86° East  Level Estimated

Login

Don't have an account? Register now (free) for customized features, flight alerts, and more!